sensor_id;sensor_type;location;lat;lon;timestamp;P1;durP1;ratioP1;P2;durP2;ratioP2
71351;SDS011;59159;51.652;4.864;2023-07-20T00:00:09;9.20;;;2.08;;
71351;SDS011;59159;51.652;4.864;2023-07-20T00:02:37;7.45;;;1.95;;
71351;SDS011;59159;51.652;4.864;2023-07-20T00:05:03;6.22;;;1.60;;
71351;SDS011;59159;51.652;4.864;2023-07-20T00:07:29;7.00;;;1.80;;
71351;SDS011;59159;51.652;4.864;2023-07-20T00:09:55;7.05;;;1.73;;
71351;SDS011;59159;51.652;4.864;2023-07-20T00:12:22;6.35;;;1.52;;
71351;SDS011;59159;51.652;4.864;2023-07-20T00:14:48;5.53;;;1.77;;
71351;SDS011;59159;51.652;4.864;2023-07-20T00:17:14;6.20;;;1.67;;
71351;SDS011;59159;51.652;4.864;2023-07-20T00:19:40;7.60;;;1.80;;
71351;SDS011;59159;51.652;4.864;2023-07-20T00:22:06;11.27;;;1.90;;
71351;SDS011;59159;51.652;4.864;2023-07-20T00:24:32;5.15;;;1.52;;
71351;SDS011;59159;51.652;4.864;2023-07-20T00:26:58;6.13;;;1.73;;
71351;SDS011;59159;51.652;4.864;2023-07-20T00:29:24;5.53;;;1.70;;
71351;SDS011;59159;51.652;4.864;2023-07-20T00:31:51;5.60;;;1.57;;
71351;SDS011;59159;51.652;4.864;2023-07-20T00:34:17;5.07;;;1.60;;
71351;SDS011;59159;51.652;4.864;2023-07-20T00:36:43;5.35;;;1.40;;
71351;SDS011;59159;51.652;4.864;2023-07-20T00:39:09;6.80;;;2.37;;
71351;SDS011;59159;51.652;4.864;2023-07-20T00:41:35;5.50;;;2.00;;
71351;SDS011;59159;51.652;4.864;2023-07-20T00:44:01;4.57;;;1.50;;
71351;SDS011;59159;51.652;4.864;2023-07-20T00:46:27;6.90;;;1.90;;
71351;SDS011;59159;51.652;4.864;2023-07-20T00:48:53;4.07;;;1.40;;
71351;SDS011;59159;51.652;4.864;2023-07-20T00:51:20;6.15;;;1.50;;
71351;SDS011;59159;51.652;4.864;2023-07-20T00:53:46;5.90;;;1.55;;
71351;SDS011;59159;51.652;4.864;2023-07-20T00:56:12;4.00;;;1.20;;
71351;SDS011;59159;51.652;4.864;2023-07-20T00:58:38;4.65;;;1.45;;
71351;SDS011;59159;51.652;4.864;2023-07-20T01:01:04;4.70;;;1.40;;
71351;SDS011;59159;51.652;4.864;2023-07-20T01:03:30;4.83;;;1.30;;
71351;SDS011;59159;51.652;4.864;2023-07-20T01:06:03;5.35;;;1.17;;
71351;SDS011;59159;51.652;4.864;2023-07-20T01:10:59;4.87;;;1.40;;
71351;SDS011;59159;51.652;4.864;2023-07-20T01:13:29;9.30;;;2.40;;
71351;SDS011;59159;51.652;4.864;2023-07-20T01:16:01;5.57;;;1.45;;
71351;SDS011;59159;51.652;4.864;2023-07-20T01:18:27;5.03;;;1.23;;
71351;SDS011;59159;51.652;4.864;2023-07-20T01:20:54;5.37;;;1.30;;
71351;SDS011;59159;51.652;4.864;2023-07-20T01:23:35;4.72;;;1.23;;
71351;SDS011;59159;51.652;4.864;2023-07-20T01:28:48;5.27;;;1.40;;
71351;SDS011;59159;51.652;4.864;2023-07-20T01:33:45;5.53;;;1.52;;
71351;SDS011;59159;51.652;4.864;2023-07-20T01:36:12;6.00;;;1.50;;
71351;SDS011;59159;51.652;4.864;2023-07-20T01:38:39;4.45;;;1.10;;
71351;SDS011;59159;51.652;4.864;2023-07-20T01:41:05;3.92;;;1.15;;
71351;SDS011;59159;51.652;4.864;2023-07-20T01:43:31;4.82;;;1.50;;
71351;SDS011;59159;51.652;4.864;2023-07-20T01:45:57;5.10;;;1.70;;
71351;SDS011;59159;51.652;4.864;2023-07-20T01:48:23;5.72;;;1.63;;
71351;SDS011;59159;51.652;4.864;2023-07-20T01:50:49;4.20;;;1.33;;
71351;SDS011;59159;51.652;4.864;2023-07-20T01:53:15;4.63;;;1.43;;
71351;SDS011;59159;51.652;4.864;2023-07-20T01:55:41;5.07;;;1.52;;
71351;SDS011;59159;51.652;4.864;2023-07-20T01:58:07;7.95;;;2.55;;
71351;SDS011;59159;51.652;4.864;2023-07-20T02:00:33;5.27;;;1.53;;
71351;SDS011;59159;51.652;4.864;2023-07-20T02:03:00;4.28;;;1.40;;
71351;SDS011;59159;51.652;4.864;2023-07-20T02:05:26;4.80;;;1.58;;
71351;SDS011;59159;51.652;4.864;2023-07-20T02:07:52;5.85;;;1.80;;
71351;SDS011;59159;51.652;4.864;2023-07-20T02:10:18;5.77;;;1.80;;
71351;SDS011;59159;51.652;4.864;2023-07-20T02:12:44;5.85;;;1.85;;
71351;SDS011;59159;51.652;4.864;2023-07-20T02:15:10;6.28;;;1.63;;
71351;SDS011;59159;51.652;4.864;2023-07-20T02:17:38;5.33;;;1.50;;
71351;SDS011;59159;51.652;4.864;2023-07-20T02:20:06;4.82;;;1.40;;
71351;SDS011;59159;51.652;4.864;2023-07-20T02:22:34;4.50;;;1.40;;
71351;SDS011;59159;51.652;4.864;2023-07-20T02:25:00;5.20;;;1.50;;
71351;SDS011;59159;51.652;4.864;2023-07-20T02:27:26;6.25;;;1.38;;
71351;SDS011;59159;51.652;4.864;2023-07-20T02:29:52;4.70;;;1.55;;
71351;SDS011;59159;51.652;4.864;2023-07-20T02:32:18;5.20;;;1.40;;
71351;SDS011;59159;51.652;4.864;2023-07-20T02:34:44;4.80;;;1.30;;
71351;SDS011;59159;51.652;4.864;2023-07-20T02:37:10;3.60;;;1.13;;
71351;SDS011;59159;51.652;4.864;2023-07-20T02:39:39;3.67;;;1.15;;
71351;SDS011;59159;51.652;4.864;2023-07-20T02:42:05;4.37;;;1.20;;
71351;SDS011;59159;51.652;4.864;2023-07-20T02:44:31;6.18;;;1.70;;
71351;SDS011;59159;51.652;4.864;2023-07-20T02:46:57;5.30;;;1.30;;
71351;SDS011;59159;51.652;4.864;2023-07-20T02:49:23;4.30;;;1.13;;
71351;SDS011;59159;51.652;4.864;2023-07-20T02:51:49;4.05;;;1.10;;
71351;SDS011;59159;51.652;4.864;2023-07-20T02:54:15;3.83;;;1.00;;
71351;SDS011;59159;51.652;4.864;2023-07-20T02:56:41;4.78;;;1.00;;
71351;SDS011;59159;51.652;4.864;2023-07-20T02:59:07;3.60;;;1.00;;
71351;SDS011;59159;51.652;4.864;2023-07-20T03:01:34;3.72;;;1.13;;
71351;SDS011;59159;51.652;4.864;2023-07-20T03:04:00;3.80;;;1.20;;
71351;SDS011;59159;51.652;4.864;2023-07-20T03:06:26;4.13;;;1.20;;
71351;SDS011;59159;51.652;4.864;2023-07-20T03:08:52;6.03;;;1.38;;
71351;SDS011;59159;51.652;4.864;2023-07-20T03:11:18;3.72;;;0.93;;
71351;SDS011;59159;51.652;4.864;2023-07-20T03:13:45;4.50;;;1.30;;
71351;SDS011;59159;51.652;4.864;2023-07-20T03:16:12;4.22;;;1.30;;
71351;SDS011;59159;51.652;4.864;2023-07-20T03:18:40;4.10;;;1.10;;
71351;SDS011;59159;51.652;4.864;2023-07-20T03:21:06;3.95;;;1.15;;
71351;SDS011;59159;51.652;4.864;2023-07-20T03:23:33;4.00;;;1.40;;
71351;SDS011;59159;51.652;4.864;2023-07-20T03:26:00;3.65;;;1.10;;
71351;SDS011;59159;51.652;4.864;2023-07-20T03:28:26;5.10;;;1.40;;
71351;SDS011;59159;51.652;4.864;2023-07-20T03:30:52;3.50;;;1.03;;
71351;SDS011;59159;51.652;4.864;2023-07-20T03:33:19;5.50;;;1.65;;
71351;SDS011;59159;51.652;4.864;2023-07-20T03:35:45;4.15;;;1.30;;
71351;SDS011;59159;51.652;4.864;2023-07-20T03:38:11;3.63;;;1.50;;
71351;SDS011;59159;51.652;4.864;2023-07-20T03:40:37;6.72;;;1.42;;
71351;SDS011;59159;51.652;4.864;2023-07-20T03:43:03;4.05;;;1.20;;
71351;SDS011;59159;51.652;4.864;2023-07-20T03:45:29;4.65;;;1.20;;
71351;SDS011;59159;51.652;4.864;2023-07-20T03:47:55;6.53;;;2.83;;
71351;SDS011;59159;51.652;4.864;2023-07-20T03:50:21;7.03;;;3.08;;
71351;SDS011;59159;51.652;4.864;2023-07-20T03:52:47;9.98;;;3.28;;
71351;SDS011;59159;51.652;4.864;2023-07-20T03:55:13;7.70;;;3.20;;
71351;SDS011;59159;51.652;4.864;2023-07-20T03:57:39;7.22;;;3.10;;
71351;SDS011;59159;51.652;4.864;2023-07-20T04:00:05;6.13;;;2.60;;
71351;SDS011;59159;51.652;4.864;2023-07-20T04:02:33;6.47;;;2.90;;
71351;SDS011;59159;51.652;4.864;2023-07-20T04:04:59;5.93;;;2.60;;
71351;SDS011;59159;51.652;4.864;2023-07-20T04:07:26;5.97;;;2.50;;
71351;SDS011;59159;51.652;4.864;2023-07-20T04:09:52;7.47;;;2.88;;
71351;SDS011;59159;51.652;4.864;2023-07-20T04:12:19;7.77;;;2.60;;
71351;SDS011;59159;51.652;4.864;2023-07-20T04:14:45;6.15;;;2.20;;
71351;SDS011;59159;51.652;4.864;2023-07-20T04:17:11;6.60;;;2.40;;
71351;SDS011;59159;51.652;4.864;2023-07-20T04:19:38;7.57;;;1.70;;
71351;SDS011;59159;51.652;4.864;2023-07-20T04:22:04;13.23;;;2.75;;
71351;SDS011;59159;51.652;4.864;2023-07-20T04:24:30;4.57;;;1.27;;
71351;SDS011;59159;51.652;4.864;2023-07-20T04:26:56;4.30;;;1.33;;
71351;SDS011;59159;51.652;4.864;2023-07-20T04:29:22;8.77;;;2.83;;
71351;SDS011;59159;51.652;4.864;2023-07-20T04:31:48;4.80;;;1.20;;
71351;SDS011;59159;51.652;4.864;2023-07-20T04:34:14;4.90;;;1.30;;
71351;SDS011;59159;51.652;4.864;2023-07-20T04:36:40;3.50;;;0.93;;
71351;SDS011;59159;51.652;4.864;2023-07-20T04:39:06;4.38;;;1.00;;
71351;SDS011;59159;51.652;4.864;2023-07-20T04:41:33;3.63;;;1.00;;
71351;SDS011;59159;51.652;4.864;2023-07-20T04:43:59;3.33;;;0.93;;
71351;SDS011;59159;51.652;4.864;2023-07-20T04:46:25;6.45;;;1.20;;
71351;SDS011;59159;51.652;4.864;2023-07-20T04:48:51;4.03;;;1.10;;
71351;SDS011;59159;51.652;4.864;2023-07-20T04:51:17;5.53;;;1.20;;
71351;SDS011;59159;51.652;4.864;2023-07-20T04:53:46;3.08;;;0.90;;
71351;SDS011;59159;51.652;4.864;2023-07-20T04:56:11;3.92;;;1.00;;
71351;SDS011;59159;51.652;4.864;2023-07-20T04:58:37;3.08;;;0.95;;
71351;SDS011;59159;51.652;4.864;2023-07-20T05:01:03;4.87;;;1.10;;
71351;SDS011;59159;51.652;4.864;2023-07-20T05:03:29;4.53;;;0.98;;
71351;SDS011;59159;51.652;4.864;2023-07-20T05:05:56;3.70;;;0.90;;
71351;SDS011;59159;51.652;4.864;2023-07-20T05:08:22;2.93;;;0.83;;
71351;SDS011;59159;51.652;4.864;2023-07-20T05:10:48;3.35;;;1.00;;
71351;SDS011;59159;51.652;4.864;2023-07-20T05:13:14;3.80;;;0.85;;
71351;SDS011;59159;51.652;4.864;2023-07-20T05:15:40;4.77;;;0.93;;
71351;SDS011;59159;51.652;4.864;2023-07-20T05:18:06;3.28;;;0.90;;
71351;SDS011;59159;51.652;4.864;2023-07-20T05:20:34;4.13;;;0.98;;
71351;SDS011;59159;51.652;4.864;2023-07-20T05:23:00;3.92;;;1.10;;
71351;SDS011;59159;51.652;4.864;2023-07-20T05:25:29;3.73;;;1.00;;
71351;SDS011;59159;51.652;4.864;2023-07-20T05:27:55;4.05;;;0.95;;
71351;SDS011;59159;51.652;4.864;2023-07-20T05:30:21;3.38;;;0.93;;
71351;SDS011;59159;51.652;4.864;2023-07-20T05:32:47;4.37;;;1.33;;
71351;SDS011;59159;51.652;4.864;2023-07-20T05:35:16;2.65;;;0.82;;
71351;SDS011;59159;51.652;4.864;2023-07-20T05:37:43;2.97;;;1.00;;
71351;SDS011;59159;51.652;4.864;2023-07-20T05:40:09;3.77;;;1.20;;
71351;SDS011;59159;51.652;4.864;2023-07-20T05:42:37;3.50;;;1.05;;
71351;SDS011;59159;51.652;4.864;2023-07-20T05:45:03;3.53;;;0.90;;
71351;SDS011;59159;51.652;4.864;2023-07-20T05:47:29;3.65;;;1.17;;
71351;SDS011;59159;51.652;4.864;2023-07-20T05:49:55;5.37;;;1.30;;
71351;SDS011;59159;51.652;4.864;2023-07-20T05:52:21;3.38;;;1.20;;
71351;SDS011;59159;51.652;4.864;2023-07-20T05:54:47;4.50;;;1.20;;
71351;SDS011;59159;51.652;4.864;2023-07-20T05:57:13;3.87;;;1.00;;
71351;SDS011;59159;51.652;4.864;2023-07-20T05:59:39;4.38;;;1.02;;
71351;SDS011;59159;51.652;4.864;2023-07-20T06:02:08;3.72;;;1.05;;
71351;SDS011;59159;51.652;4.864;2023-07-20T06:04:34;4.17;;;1.10;;
71351;SDS011;59159;51.652;4.864;2023-07-20T06:07:01;3.40;;;0.85;;
71351;SDS011;59159;51.652;4.864;2023-07-20T06:09:27;3.00;;;0.70;;
71351;SDS011;59159;51.652;4.864;2023-07-20T06:11:54;3.90;;;1.10;;
71351;SDS011;59159;51.652;4.864;2023-07-20T06:14:20;3.50;;;1.13;;
71351;SDS011;59159;51.652;4.864;2023-07-20T06:16:47;3.78;;;1.17;;
71351;SDS011;59159;51.652;4.864;2023-07-20T06:19:12;5.07;;;1.20;;
71351;SDS011;59159;51.652;4.864;2023-07-20T06:21:39;3.33;;;0.97;;
71351;SDS011;59159;51.652;4.864;2023-07-20T06:24:05;3.28;;;0.98;;
71351;SDS011;59159;51.652;4.864;2023-07-20T06:26:31;2.90;;;0.95;;
71351;SDS011;59159;51.652;4.864;2023-07-20T06:29:03;4.00;;;0.90;;
71351;SDS011;59159;51.652;4.864;2023-07-20T06:31:29;4.43;;;1.00;;
71351;SDS011;59159;51.652;4.864;2023-07-20T06:33:55;4.10;;;1.15;;
71351;SDS011;59159;51.652;4.864;2023-07-20T06:36:21;4.72;;;1.05;;
71351;SDS011;59159;51.652;4.864;2023-07-20T06:38:47;3.00;;;0.90;;
71351;SDS011;59159;51.652;4.864;2023-07-20T06:41:13;3.55;;;0.90;;
71351;SDS011;59159;51.652;4.864;2023-07-20T06:43:39;3.05;;;1.10;;
71351;SDS011;59159;51.652;4.864;2023-07-20T06:46:05;3.27;;;0.90;;
71351;SDS011;59159;51.652;4.864;2023-07-20T06:48:31;4.65;;;1.05;;
71351;SDS011;59159;51.652;4.864;2023-07-20T06:50:57;4.28;;;0.90;;
71351;SDS011;59159;51.652;4.864;2023-07-20T06:53:23;4.50;;;0.80;;
71351;SDS011;59159;51.652;4.864;2023-07-20T06:55:49;3.05;;;0.80;;
71351;SDS011;59159;51.652;4.864;2023-07-20T06:58:15;2.80;;;0.88;;
71351;SDS011;59159;51.652;4.864;2023-07-20T07:00:41;3.40;;;0.85;;
71351;SDS011;59159;51.652;4.864;2023-07-20T07:03:07;3.83;;;0.73;;
71351;SDS011;59159;51.652;4.864;2023-07-20T07:05:36;3.65;;;0.90;;
71351;SDS011;59159;51.652;4.864;2023-07-20T07:08:03;2.83;;;1.27;;
71351;SDS011;59159;51.652;4.864;2023-07-20T07:10:29;4.17;;;0.80;;
71351;SDS011;59159;51.652;4.864;2023-07-20T07:12:55;2.70;;;0.70;;
71351;SDS011;59159;51.652;4.864;2023-07-20T07:15:21;2.80;;;0.70;;
71351;SDS011;59159;51.652;4.864;2023-07-20T07:17:47;3.77;;;0.70;;
71351;SDS011;59159;51.652;4.864;2023-07-20T07:20:13;3.30;;;0.80;;
71351;SDS011;59159;51.652;4.864;2023-07-20T07:22:39;2.60;;;0.70;;
71351;SDS011;59159;51.652;4.864;2023-07-20T07:25:08;2.80;;;0.90;;
71351;SDS011;59159;51.652;4.864;2023-07-20T07:27:35;3.30;;;1.00;;
71351;SDS011;59159;51.652;4.864;2023-07-20T07:30:01;2.78;;;0.80;;
71351;SDS011;59159;51.652;4.864;2023-07-20T07:32:27;3.45;;;0.98;;
71351;SDS011;59159;51.652;4.864;2023-07-20T07:34:53;4.27;;;0.90;;
71351;SDS011;59159;51.652;4.864;2023-07-20T07:37:20;2.97;;;0.80;;
71351;SDS011;59159;51.652;4.864;2023-07-20T07:39:46;2.55;;;0.70;;
71351;SDS011;59159;51.652;4.864;2023-07-20T07:42:12;4.30;;;1.10;;
71351;SDS011;59159;51.652;4.864;2023-07-20T07:44:38;2.80;;;1.10;;
71351;SDS011;59159;51.652;4.864;2023-07-20T07:47:04;2.92;;;0.80;;
71351;SDS011;59159;51.652;4.864;2023-07-20T07:49:30;3.90;;;0.90;;
71351;SDS011;59159;51.652;4.864;2023-07-20T07:51:56;3.93;;;0.97;;
71351;SDS011;59159;51.652;4.864;2023-07-20T07:54:22;2.38;;;0.90;;
71351;SDS011;59159;51.652;4.864;2023-07-20T07:56:48;3.22;;;0.80;;
71351;SDS011;59159;51.652;4.864;2023-07-20T07:59:16;2.97;;;0.80;;
71351;SDS011;59159;51.652;4.864;2023-07-20T08:01:42;2.53;;;0.70;;
71351;SDS011;59159;51.652;4.864;2023-07-20T08:04:08;3.00;;;0.73;;
71351;SDS011;59159;51.652;4.864;2023-07-20T08:06:34;4.10;;;0.80;;
71351;SDS011;59159;51.652;4.864;2023-07-20T08:09:00;2.88;;;0.70;;
71351;SDS011;59159;51.652;4.864;2023-07-20T08:11:27;3.50;;;0.75;;
71351;SDS011;59159;51.652;4.864;2023-07-20T08:13:55;2.78;;;0.90;;
71351;SDS011;59159;51.652;4.864;2023-07-20T08:16:21;3.17;;;0.70;;
71351;SDS011;59159;51.652;4.864;2023-07-20T08:18:47;4.30;;;0.90;;
71351;SDS011;59159;51.652;4.864;2023-07-20T08:21:13;2.30;;;0.70;;
71351;SDS011;59159;51.652;4.864;2023-07-20T08:23:42;2.57;;;0.70;;
71351;SDS011;59159;51.652;4.864;2023-07-20T08:26:08;2.80;;;0.70;;
71351;SDS011;59159;51.652;4.864;2023-07-20T08:28:34;2.75;;;0.80;;
71351;SDS011;59159;51.652;4.864;2023-07-20T08:31:00;3.47;;;0.97;;
71351;SDS011;59159;51.652;4.864;2023-07-20T08:33:27;2.85;;;0.85;;
71351;SDS011;59159;51.652;4.864;2023-07-20T08:35:58;2.28;;;0.70;;
71351;SDS011;59159;51.652;4.864;2023-07-20T08:38:24;3.25;;;0.63;;
71351;SDS011;59159;51.652;4.864;2023-07-20T08:40:51;2.10;;;0.60;;
71351;SDS011;59159;51.652;4.864;2023-07-20T08:43:19;4.10;;;0.80;;
71351;SDS011;59159;51.652;4.864;2023-07-20T08:45:45;2.55;;;0.70;;
71351;SDS011;59159;51.652;4.864;2023-07-20T08:48:12;2.03;;;0.63;;
71351;SDS011;59159;51.652;4.864;2023-07-20T08:50:39;2.30;;;0.80;;
71351;SDS011;59159;51.652;4.864;2023-07-20T08:53:05;2.22;;;0.60;;
71351;SDS011;59159;51.652;4.864;2023-07-20T08:55:32;2.10;;;0.67;;
71351;SDS011;59159;51.652;4.864;2023-07-20T08:57:58;4.05;;;0.75;;
71351;SDS011;59159;51.652;4.864;2023-07-20T09:00:25;2.83;;;0.70;;
71351;SDS011;59159;51.652;4.864;2023-07-20T09:02:55;3.00;;;0.80;;
71351;SDS011;59159;51.652;4.864;2023-07-20T09:05:22;2.67;;;0.83;;
71351;SDS011;59159;51.652;4.864;2023-07-20T09:07:48;2.47;;;0.75;;
71351;SDS011;59159;51.652;4.864;2023-07-20T09:10:14;2.55;;;0.77;;
71351;SDS011;59159;51.652;4.864;2023-07-20T09:12:41;2.97;;;0.70;;
71351;SDS011;59159;51.652;4.864;2023-07-20T09:15:08;2.15;;;0.60;;
71351;SDS011;59159;51.652;4.864;2023-07-20T09:17:34;3.00;;;0.82;;
71351;SDS011;59159;51.652;4.864;2023-07-20T09:20:06;2.00;;;0.70;;
71351;SDS011;59159;51.652;4.864;2023-07-20T09:22:35;2.63;;;0.80;;
71351;SDS011;59159;51.652;4.864;2023-07-20T09:25:05;2.75;;;1.00;;
71351;SDS011;59159;51.652;4.864;2023-07-20T09:27:34;2.65;;;0.77;;
71351;SDS011;59159;51.652;4.864;2023-07-20T09:30:01;2.47;;;0.73;;
71351;SDS011;59159;51.652;4.864;2023-07-20T09:32:27;3.13;;;0.75;;
71351;SDS011;59159;51.652;4.864;2023-07-20T09:34:54;2.45;;;0.73;;
71351;SDS011;59159;51.652;4.864;2023-07-20T09:37:23;1.90;;;0.57;;
71351;SDS011;59159;51.652;4.864;2023-07-20T09:39:51;2.97;;;0.80;;
71351;SDS011;59159;51.652;4.864;2023-07-20T09:42:17;2.80;;;0.90;;
71351;SDS011;59159;51.652;4.864;2023-07-20T09:44:44;4.57;;;1.10;;
71351;SDS011;59159;51.652;4.864;2023-07-20T09:47:10;2.10;;;0.73;;
71351;SDS011;59159;51.652;4.864;2023-07-20T09:49:40;2.70;;;0.85;;
71351;SDS011;59159;51.652;4.864;2023-07-20T09:52:07;3.13;;;0.70;;
71351;SDS011;59159;51.652;4.864;2023-07-20T09:54:35;1.80;;;0.60;;
71351;SDS011;59159;51.652;4.864;2023-07-20T09:57:01;4.32;;;0.80;;
71351;SDS011;59159;51.652;4.864;2023-07-20T09:59:28;2.20;;;0.60;;
71351;SDS011;59159;51.652;4.864;2023-07-20T10:01:54;2.20;;;0.60;;
71351;SDS011;59159;51.652;4.864;2023-07-20T10:04:24;3.75;;;0.80;;
71351;SDS011;59159;51.652;4.864;2023-07-20T10:06:50;2.85;;;0.68;;
71351;SDS011;59159;51.652;4.864;2023-07-20T10:09:17;1.93;;;0.73;;
71351;SDS011;59159;51.652;4.864;2023-07-20T10:11:45;3.88;;;0.90;;
71351;SDS011;59159;51.652;4.864;2023-07-20T10:14:16;2.30;;;0.70;;
71351;SDS011;59159;51.652;4.864;2023-07-20T10:16:51;3.72;;;0.77;;
71351;SDS011;59159;51.652;4.864;2023-07-20T10:19:22;2.17;;;0.63;;
71351;SDS011;59159;51.652;4.864;2023-07-20T10:21:51;3.05;;;0.75;;
71351;SDS011;59159;51.652;4.864;2023-07-20T10:24:20;4.78;;;0.90;;
71351;SDS011;59159;51.652;4.864;2023-07-20T10:26:46;2.50;;;0.80;;
71351;SDS011;59159;51.652;4.864;2023-07-20T10:29:12;2.38;;;0.70;;
71351;SDS011;59159;51.652;4.864;2023-07-20T10:31:38;3.60;;;0.75;;
71351;SDS011;59159;51.652;4.864;2023-07-20T10:34:04;2.13;;;0.70;;
71351;SDS011;59159;51.652;4.864;2023-07-20T10:36:31;3.00;;;0.80;;
71351;SDS011;59159;51.652;4.864;2023-07-20T10:38:57;2.88;;;0.90;;
71351;SDS011;59159;51.652;4.864;2023-07-20T10:41:37;2.47;;;0.70;;
71351;SDS011;59159;51.652;4.864;2023-07-20T10:44:08;2.87;;;0.70;;
71351;SDS011;59159;51.652;4.864;2023-07-20T10:49:02;3.40;;;0.80;;
71351;SDS011;59159;51.652;4.864;2023-07-20T10:51:29;2.27;;;0.67;;
71351;SDS011;59159;51.652;4.864;2023-07-20T10:53:56;3.03;;;0.63;;
71351;SDS011;59159;51.652;4.864;2023-07-20T10:56:25;3.33;;;0.75;;
71351;SDS011;59159;51.652;4.864;2023-07-20T10:58:55;2.53;;;0.77;;
71351;SDS011;59159;51.652;4.864;2023-07-20T11:01:21;2.35;;;0.80;;
71351;SDS011;59159;51.652;4.864;2023-07-20T11:03:50;2.53;;;0.80;;
71351;SDS011;59159;51.652;4.864;2023-07-20T11:11:42;2.45;;;0.80;;
71351;SDS011;59159;51.652;4.864;2023-07-20T11:14:10;3.30;;;1.00;;
71351;SDS011;59159;51.652;4.864;2023-07-20T11:16:43;3.63;;;0.77;;
71351;SDS011;59159;51.652;4.864;2023-07-20T11:19:13;2.67;;;0.82;;
71351;SDS011;59159;51.652;4.864;2023-07-20T11:21:41;2.63;;;0.70;;
71351;SDS011;59159;51.652;4.864;2023-07-20T11:24:07;2.33;;;0.80;;
71351;SDS011;59159;51.652;4.864;2023-07-20T11:26:45;3.85;;;0.90;;
71351;SDS011;59159;51.652;4.864;2023-07-20T11:29:11;3.03;;;0.73;;
71351;SDS011;59159;51.652;4.864;2023-07-20T11:31:41;2.55;;;0.73;;
71351;SDS011;59159;51.652;4.864;2023-07-20T11:34:10;2.77;;;0.90;;
71351;SDS011;59159;51.652;4.864;2023-07-20T11:36:37;3.08;;;0.90;;
71351;SDS011;59159;51.652;4.864;2023-07-20T11:39:03;2.42;;;0.70;;
71351;SDS011;59159;51.652;4.864;2023-07-20T11:41:30;3.20;;;0.70;;
71351;SDS011;59159;51.652;4.864;2023-07-20T11:43:57;2.35;;;0.90;;
71351;SDS011;59159;51.652;4.864;2023-07-20T11:46:23;2.88;;;0.85;;
71351;SDS011;59159;51.652;4.864;2023-07-20T11:48:49;2.83;;;0.83;;
71351;SDS011;59159;51.652;4.864;2023-07-20T11:51:20;2.83;;;0.80;;
71351;SDS011;59159;51.652;4.864;2023-07-20T11:53:46;3.50;;;1.02;;
71351;SDS011;59159;51.652;4.864;2023-07-20T11:56:13;3.97;;;0.90;;
71351;SDS011;59159;51.652;4.864;2023-07-20T11:58:45;2.97;;;1.00;;
71351;SDS011;59159;51.652;4.864;2023-07-20T12:01:14;2.58;;;0.90;;
71351;SDS011;59159;51.652;4.864;2023-07-20T12:03:41;3.58;;;0.70;;
71351;SDS011;59159;51.652;4.864;2023-07-20T12:06:08;2.47;;;0.83;;
71351;SDS011;59159;51.652;4.864;2023-07-20T12:08:34;1.88;;;0.70;;
71351;SDS011;59159;51.652;4.864;2023-07-20T12:11:00;2.80;;;0.75;;
71351;SDS011;59159;51.652;4.864;2023-07-20T12:13:44;4.03;;;1.10;;
71351;SDS011;59159;51.652;4.864;2023-07-20T12:16:11;2.92;;;0.90;;
71351;SDS011;59159;51.652;4.864;2023-07-20T12:18:38;2.70;;;0.95;;
71351;SDS011;59159;51.652;4.864;2023-07-20T12:21:05;4.50;;;1.00;;
71351;SDS011;59159;51.652;4.864;2023-07-20T12:23:35;2.77;;;0.90;;
71351;SDS011;59159;51.652;4.864;2023-07-20T12:26:02;3.17;;;0.82;;
71351;SDS011;59159;51.652;4.864;2023-07-20T12:28:28;3.58;;;1.02;;
71351;SDS011;59159;51.652;4.864;2023-07-20T12:30:55;3.00;;;0.90;;
71351;SDS011;59159;51.652;4.864;2023-07-20T12:33:21;3.00;;;0.93;;
71351;SDS011;59159;51.652;4.864;2023-07-20T12:35:47;4.40;;;1.08;;
71351;SDS011;59159;51.652;4.864;2023-07-20T12:38:14;2.90;;;1.00;;
71351;SDS011;59159;51.652;4.864;2023-07-20T12:40:40;3.55;;;1.05;;
71351;SDS011;59159;51.652;4.864;2023-07-20T12:43:06;2.70;;;0.80;;
71351;SDS011;59159;51.652;4.864;2023-07-20T12:45:33;3.55;;;1.10;;
71351;SDS011;59159;51.652;4.864;2023-07-20T12:47:59;3.30;;;1.20;;
71351;SDS011;59159;51.652;4.864;2023-07-20T12:50:25;4.35;;;0.98;;
71351;SDS011;59159;51.652;4.864;2023-07-20T12:52:51;3.28;;;1.00;;
71351;SDS011;59159;51.652;4.864;2023-07-20T12:55:17;2.13;;;0.77;;
71351;SDS011;59159;51.652;4.864;2023-07-20T12:57:43;2.63;;;1.02;;
71351;SDS011;59159;51.652;4.864;2023-07-20T13:00:10;3.03;;;1.00;;
71351;SDS011;59159;51.652;4.864;2023-07-20T13:02:37;3.80;;;1.07;;
71351;SDS011;59159;51.652;4.864;2023-07-20T13:05:03;3.35;;;1.00;;
71351;SDS011;59159;51.652;4.864;2023-07-20T13:07:30;2.97;;;0.80;;
71351;SDS011;59159;51.652;4.864;2023-07-20T13:09:57;3.95;;;0.98;;
71351;SDS011;59159;51.652;4.864;2023-07-20T13:12:24;3.17;;;1.00;;
71351;SDS011;59159;51.652;4.864;2023-07-20T13:14:50;3.80;;;1.00;;
71351;SDS011;59159;51.652;4.864;2023-07-20T13:17:16;3.17;;;1.27;;
71351;SDS011;59159;51.652;4.864;2023-07-20T13:19:42;2.63;;;1.00;;
71351;SDS011;59159;51.652;4.864;2023-07-20T13:22:08;3.03;;;1.00;;
71351;SDS011;59159;51.652;4.864;2023-07-20T13:24:34;2.25;;;0.70;;
71351;SDS011;59159;51.652;4.864;2023-07-20T13:27:00;4.80;;;1.00;;
71351;SDS011;59159;51.652;4.864;2023-07-20T13:29:26;2.20;;;0.70;;
71351;SDS011;59159;51.652;4.864;2023-07-20T13:31:51;2.60;;;0.80;;
71351;SDS011;59159;51.652;4.864;2023-07-20T13:34:18;3.30;;;0.88;;
71351;SDS011;59159;51.652;4.864;2023-07-20T13:36:44;4.03;;;0.90;;
71351;SDS011;59159;51.652;4.864;2023-07-20T13:39:10;4.05;;;1.00;;
71351;SDS011;59159;51.652;4.864;2023-07-20T13:41:36;3.35;;;1.13;;
71351;SDS011;59159;51.652;4.864;2023-07-20T13:44:02;2.93;;;0.80;;
71351;SDS011;59159;51.652;4.864;2023-07-20T13:46:28;3.63;;;1.25;;
71351;SDS011;59159;51.652;4.864;2023-07-20T13:48:54;4.43;;;1.08;;
71351;SDS011;59159;51.652;4.864;2023-07-20T13:51:20;4.37;;;1.00;;
71351;SDS011;59159;51.652;4.864;2023-07-20T13:53:47;2.85;;;0.80;;
71351;SDS011;59159;51.652;4.864;2023-07-20T13:56:13;3.30;;;0.95;;
71351;SDS011;59159;51.652;4.864;2023-07-20T13:58:39;2.83;;;0.80;;
71351;SDS011;59159;51.652;4.864;2023-07-20T14:01:05;3.67;;;0.93;;
71351;SDS011;59159;51.652;4.864;2023-07-20T14:03:31;3.33;;;1.00;;
71351;SDS011;59159;51.652;4.864;2023-07-20T14:05:57;2.92;;;1.00;;
71351;SDS011;59159;51.652;4.864;2023-07-20T14:08:23;4.77;;;0.83;;
71351;SDS011;59159;51.652;4.864;2023-07-20T14:10:49;3.72;;;0.80;;
71351;SDS011;59159;51.652;4.864;2023-07-20T14:13:16;4.85;;;1.45;;
71351;SDS011;59159;51.652;4.864;2023-07-20T14:15:42;4.33;;;0.80;;
71351;SDS011;59159;51.652;4.864;2023-07-20T14:18:08;3.03;;;0.60;;
71351;SDS011;59159;51.652;4.864;2023-07-20T14:20:34;4.07;;;0.95;;
71351;SDS011;59159;51.652;4.864;2023-07-20T14:23:00;3.25;;;0.80;;
71351;SDS011;59159;51.652;4.864;2023-07-20T14:25:29;2.53;;;0.70;;
71351;SDS011;59159;51.652;4.864;2023-07-20T14:27:55;4.07;;;0.80;;
71351;SDS011;59159;51.652;4.864;2023-07-20T14:30:21;2.88;;;0.75;;
71351;SDS011;59159;51.652;4.864;2023-07-20T14:32:47;2.60;;;0.90;;
71351;SDS011;59159;51.652;4.864;2023-07-20T14:35:13;3.70;;;0.90;;
71351;SDS011;59159;51.652;4.864;2023-07-20T14:37:39;2.15;;;0.82;;
71351;SDS011;59159;51.652;4.864;2023-07-20T14:40:05;3.70;;;0.93;;
71351;SDS011;59159;51.652;4.864;2023-07-20T14:42:32;3.50;;;0.90;;
71351;SDS011;59159;51.652;4.864;2023-07-20T14:44:58;2.67;;;0.75;;
71351;SDS011;59159;51.652;4.864;2023-07-20T14:47:24;3.38;;;0.90;;
71351;SDS011;59159;51.652;4.864;2023-07-20T14:49:50;2.77;;;0.80;;
71351;SDS011;59159;51.652;4.864;2023-07-20T14:52:16;2.58;;;0.85;;
71351;SDS011;59159;51.652;4.864;2023-07-20T14:54:42;3.20;;;1.15;;
71351;SDS011;59159;51.652;4.864;2023-07-20T14:57:08;2.80;;;0.80;;
71351;SDS011;59159;51.652;4.864;2023-07-20T14:59:39;3.17;;;0.90;;